コペンハーゲン の空港の天気 - METARとTAF

コペンハーゲン国際空港 ( EKCH / CPH ) - デンマーク コペンハーゲン
飛行場実況気象(Metar)
観測時間04/30 16:20 CEST (04/30 14:20 UTC)
風向・風速南南東 7m/s
視程10km以上
天気現象
少しの雲 雲底高度 760m
気温9℃
湿度53%
気圧1023hPa
METAREKCH 301420Z 15013KT 9999 FEW025 09/00 Q1023 NOSIG
過去の天気等 Google飛行場航空写真 Wunderground天気予報

過去48時間のMETAR

飛行場予報(TAF)
発表時間: 4/30 12:40 CEST (4/30 10:40 UTC)
予報対象時間: 30日14時 CEST ~ 1日14時 CEST
風向・風速南南東 6m/s
視程10km以上
少しの雲 雲底高度 760m
1日11時 CEST ~ 1日14時 CEST に一時的に
風向・風速東南東 8m/s 瞬間風速 14m/s
TAF EKCH 301040Z 3012/0112 15012KT 9999 FEW025
TEMPO 0109/0112 11015G28KT